createdAt,value
2022-08-12T00:00:36.282Z,36.40
2022-08-12T00:03:23.019Z,33.80
2022-08-12T00:06:10.300Z,35.81
2022-08-12T00:08:57.883Z,35.10
2022-08-12T00:11:45.644Z,33.28
2022-08-12T00:14:32.910Z,33.39
2022-08-12T00:17:19.639Z,33.38
2022-08-12T00:20:06.989Z,33.25
2022-08-12T00:22:59.047Z,35.36
2022-08-12T00:26:23.748Z,37.56
2022-08-12T00:29:12.618Z,34.47
2022-08-12T00:32:01.267Z,34.93
2022-08-12T00:34:51.782Z,35.38
2022-08-12T00:37:41.724Z,37.16
2022-08-12T00:40:31.777Z,35.80
2022-08-12T00:43:01.241Z,35.55
2022-08-12T00:45:49.669Z,34.84
2022-08-12T00:48:18.041Z,33.45
2022-08-12T00:50:46.534Z,35.69
2022-08-12T00:53:15.625Z,36.30
2022-08-12T00:55:47.982Z,37.43
2022-08-12T00:58:25.577Z,35.76
2022-08-12T01:00:59.095Z,35.59
2022-08-12T01:03:48.232Z,35.82
2022-08-12T01:06:39.996Z,34.99
2022-08-12T01:09:28.075Z,34.30
2022-08-12T01:11:56.726Z,35.69
2022-08-12T01:14:25.322Z,35.19
2022-08-12T01:16:53.966Z,34.76
2022-08-12T01:19:24.077Z,36.65
2022-08-12T01:22:42.126Z,41.26
2022-08-12T01:25:19.525Z,38.04
2022-08-12T01:27:50.990Z,39.11
2022-08-12T01:30:19.547Z,38.28
2022-08-12T01:32:48.799Z,38.10
2022-08-12T01:35:17.848Z,38.94
2022-08-12T01:38:05.018Z,39.26
2022-08-12T01:40:59.682Z,37.53
2022-08-12T01:43:28.850Z,38.64
2022-08-12T01:46:57.259Z,36.33
2022-08-12T01:49:45.045Z,38.42
2022-08-12T01:52:55.216Z,37.85
2022-08-12T01:55:33.323Z,35.48
2022-08-12T01:58:50.730Z,35.21
2022-08-12T02:01:26.084Z,34.47
2022-08-12T02:08:39.998Z,38.19
2022-08-12T02:11:34.779Z,35.95
2022-08-12T02:14:28.427Z,34.97
2022-08-12T02:17:55.637Z,35.97
2022-08-12T02:20:52.092Z,36.43
2022-08-12T02:23:27.967Z,35.22
2022-08-12T02:26:05.919Z,34.67
2022-08-12T02:28:36.414Z,34.02
2022-08-12T02:31:09.218Z,36.23
2022-08-12T02:33:38.523Z,35.65
2022-08-12T02:36:07.317Z,34.65
2022-08-12T02:38:36.773Z,37.01
2022-08-12T02:41:06.861Z,36.44
2022-08-12T02:43:49.311Z,38.06
2022-08-12T02:46:31.018Z,38.89
2022-08-12T02:49:16.372Z,35.86
2022-08-12T02:51:45.167Z,36.28
2022-08-12T02:54:13.546Z,36.10
2022-08-12T02:56:47.149Z,35.11
2022-08-12T02:59:24.318Z,34.33
2022-08-12T03:01:56.354Z,35.95
2022-08-12T03:04:54.292Z,36.33
2022-08-12T03:07:56.056Z,35.98
2022-08-12T03:10:36.706Z,36.54
2022-08-12T03:13:08.318Z,35.87
2022-08-12T03:15:36.650Z,35.46
2022-08-12T03:18:25.570Z,38.16
2022-08-12T03:20:57.529Z,38.32
2022-08-12T03:23:30.176Z,39.48
2022-08-12T03:26:02.486Z,37.15
2022-08-12T03:28:51.678Z,38.21
2022-08-12T03:31:30.133Z,37.22
2022-08-12T03:34:12.545Z,35.75
2022-08-12T03:36:42.323Z,35.99
2022-08-12T03:39:16.984Z,37.09
2022-08-12T03:42:28.334Z,38.49
2022-08-12T03:45:50.077Z,36.02
2022-08-12T03:48:41.963Z,35.71
2022-08-12T03:51:30.583Z,36.09
2022-08-12T03:54:17.472Z,39.51
2022-08-12T04:02:55.528Z,38.59
2022-08-12T04:05:54.599Z,37.90
2022-08-12T04:08:14.729Z,38.53
2022-08-12T04:11:01.624Z,41.54
2022-08-12T04:13:29.939Z,41.92
2022-08-12T04:16:02.113Z,37.89
2022-08-12T04:18:30.737Z,38.36
2022-08-12T04:20:59.274Z,38.16
2022-08-12T04:23:28.688Z,37.06
2022-08-12T04:25:56.899Z,36.43
2022-08-12T04:28:28.935Z,36.82
2022-08-12T04:30:58.056Z,36.41
2022-08-12T04:33:27.769Z,36.03
2022-08-12T04:35:56.247Z,35.66
2022-08-12T04:38:24.744Z,35.41
2022-08-12T04:40:53.800Z,36.62
2022-08-12T04:44:01.115Z,36.38
2022-08-12T04:46:11.213Z,36.54
2022-08-12T04:48:39.490Z,36.01
2022-08-12T04:51:07.963Z,37.90
2022-08-12T04:53:36.269Z,38.91
2022-08-12T04:56:05.053Z,39.27
2022-08-12T04:58:34.200Z,41.98
2022-08-12T05:01:02.581Z,40.26
2022-08-12T05:03:46.814Z,38.22
2022-08-12T05:06:26.287Z,36.37
2022-08-12T05:08:57.343Z,37.46
2022-08-12T05:11:26.872Z,37.19
2022-08-12T05:14:12.187Z,36.11
2022-08-12T05:16:43.359Z,36.00
2022-08-12T05:19:18.746Z,35.95
2022-08-12T05:21:50.928Z,36.22
2022-08-12T05:24:19.224Z,36.39
2022-08-12T05:26:47.689Z,38.64
2022-08-12T05:30:05.605Z,37.79
2022-08-12T05:32:06.309Z,39.70
2022-08-12T05:34:34.757Z,37.68
2022-08-12T05:37:03.080Z,38.21
2022-08-12T05:39:31.400Z,39.25
2022-08-12T05:41:59.724Z,37.50
2022-08-12T05:44:27.956Z,37.42
2022-08-12T05:46:56.204Z,38.72
2022-08-12T05:49:24.391Z,38.12
2022-08-12T05:51:52.789Z,39.43
2022-08-12T05:54:35.327Z,41.52
2022-08-12T05:57:11.546Z,38.78
2022-08-12T05:59:41.022Z,40.75
2022-08-12T06:02:13.713Z,40.15
2022-08-12T06:04:45.204Z,38.66
2022-08-12T06:08:01.775Z,39.84
2022-08-12T06:10:02.409Z,40.70
2022-08-12T06:12:30.757Z,39.92
2022-08-12T06:15:00.111Z,39.66
2022-08-12T06:17:30.194Z,39.12
2022-08-12T06:20:26.236Z,40.28
2022-08-12T06:22:47.817Z,40.96
2022-08-12T06:25:21.822Z,43.05
2022-08-12T06:28:06.569Z,40.78
2022-08-12T06:30:38.949Z,42.75
2022-08-12T06:33:21.984Z,42.92
2022-08-12T06:35:58.739Z,41.53
2022-08-12T06:38:30.522Z,41.40
2022-08-12T06:41:19.583Z,41.68
2022-08-12T06:44:05.557Z,42.14
2022-08-12T06:46:39.306Z,42.25
2022-08-12T06:49:13.153Z,42.17
2022-08-12T06:51:41.416Z,41.75
2022-08-12T06:54:31.880Z,42.40
2022-08-12T06:57:04.686Z,42.29
2022-08-12T06:59:35.553Z,43.01
2022-08-12T07:02:03.863Z,42.54
2022-08-12T07:04:37.891Z,43.14
2022-08-12T07:07:10.303Z,42.88
2022-08-12T07:10:04.681Z,42.70
2022-08-12T07:12:31.563Z,42.05
2022-08-12T07:15:01.803Z,42.13
2022-08-12T07:17:36.270Z,41.71
2022-08-12T07:20:29.956Z,42.52
2022-08-12T07:23:15.764Z,41.45
2022-08-12T07:25:44.301Z,41.84
2022-08-12T07:28:24.190Z,41.25
2022-08-12T07:30:54.924Z,41.44
2022-08-12T07:33:28.368Z,41.70
2022-08-12T07:36:02.241Z,40.74
2022-08-12T07:38:44.360Z,39.66
2022-08-12T07:41:38.306Z,40.04
2022-08-12T07:44:09.422Z,39.96
2022-08-12T07:46:43.477Z,39.65
2022-08-12T07:49:15.492Z,40.15
2022-08-12T07:51:44.601Z,39.80
2022-08-12T07:54:14.059Z,39.57
2022-08-12T07:56:42.777Z,38.98
2022-08-12T07:59:11.262Z,38.44
2022-08-12T08:01:39.790Z,38.11
2022-08-12T08:04:28.496Z,37.85
2022-08-12T08:07:23.483Z,37.69
2022-08-12T08:10:00.595Z,37.02
2022-08-12T08:12:49.675Z,36.37
2022-08-12T08:15:20.144Z,36.21
2022-08-12T08:18:06.012Z,35.80
2022-08-12T08:20:45.372Z,35.85
2022-08-12T08:23:18.274Z,35.44
2022-08-12T08:25:46.764Z,35.00
2022-08-12T08:28:21.167Z,34.92
2022-08-12T08:30:51.177Z,34.86
2022-08-12T08:34:05.415Z,34.40
2022-08-12T08:36:23.517Z,33.62
2022-08-12T08:38:58.565Z,33.40
2022-08-12T08:42:17.945Z,33.11
2022-08-12T08:44:40.334Z,31.27
2022-08-12T08:47:16.211Z,31.83
2022-08-12T08:49:45.537Z,31.04
2022-08-12T08:52:39.429Z,31.16
2022-08-12T08:55:20.889Z,30.31
2022-08-12T08:57:54.827Z,31.52
2022-08-12T09:00:23.540Z,31.12
2022-08-12T09:02:59.234Z,31.31
2022-08-12T09:05:43.207Z,30.89
2022-08-12T09:08:23.196Z,30.03
2022-08-12T09:11:52.255Z,30.15
2022-08-12T09:14:12.169Z,29.89
2022-08-12T09:16:41.590Z,29.13
2022-08-12T09:19:27.387Z,29.07
2022-08-12T09:21:57.344Z,28.73
2022-08-12T09:24:30.767Z,27.50
2022-08-12T09:27:00.212Z,28.23
2022-08-12T09:30:11.759Z,27.99
2022-08-12T09:32:56.226Z,28.16
2022-08-12T09:35:18.745Z,27.52
2022-08-12T09:37:58.777Z,26.44
2022-08-12T09:41:02.329Z,27.51
2022-08-12T09:43:36.490Z,26.10
2022-08-12T09:46:06.219Z,26.35
2022-08-12T09:48:56.804Z,27.00
2022-08-12T09:51:37.976Z,27.02
2022-08-12T09:54:34.362Z,26.05
2022-08-12T09:58:08.251Z,24.03
2022-08-12T10:00:13.525Z,23.75
2022-08-12T10:03:32.582Z,22.85
2022-08-12T10:06:26.325Z,23.44
2022-08-12T10:08:55.254Z,23.27
2022-08-12T10:12:12.038Z,22.22
2022-08-12T10:14:34.478Z,22.79
2022-08-12T10:17:09.018Z,19.89
2022-08-12T10:19:39.093Z,20.41
2022-08-12T10:22:16.864Z,21.26
2022-08-12T10:25:17.690Z,21.83
2022-08-12T10:28:10.709Z,21.41
2022-08-12T10:30:59.356Z,20.56
2022-08-12T10:33:31.007Z,20.14
2022-08-12T10:36:01.923Z,19.91
2022-08-12T10:38:35.028Z,19.64
2022-08-12T10:41:57.674Z,17.80
2022-08-12T10:44:17.282Z,19.35
2022-08-12T10:46:49.678Z,17.34
2022-08-12T10:50:02.856Z,18.69
2022-08-12T10:52:32.762Z,18.03
2022-08-12T10:54:57.108Z,17.54
2022-08-12T10:58:27.439Z,17.58
2022-08-12T11:00:55.009Z,17.23
2022-08-12T11:04:28.473Z,17.28
2022-08-12T11:07:05.821Z,16.19
2022-08-12T11:09:10.246Z,16.61
2022-08-12T11:12:35.046Z,16.15
2022-08-12T11:14:50.567Z,15.55
2022-08-12T11:17:43.789Z,16.17
2022-08-12T11:20:09.210Z,16.53
2022-08-12T11:22:57.892Z,15.64
2022-08-12T11:25:57.360Z,13.56
2022-08-12T11:28:34.456Z,15.24
2022-08-12T11:31:06.389Z,12.81
2022-08-12T11:34:05.666Z,13.34
2022-08-12T11:36:22.952Z,13.78
2022-08-12T11:38:51.565Z,15.26
2022-08-12T11:41:31.150Z,14.55
2022-08-12T11:44:37.356Z,12.63
2022-08-12T11:47:18.106Z,15.03
2022-08-12T11:49:52.043Z,13.24
2022-08-12T11:52:55.080Z,14.08
2022-08-12T11:55:11.016Z,14.19
2022-08-12T11:58:06.983Z,12.88
2022-08-12T12:04:10.432Z,12.78
2022-08-12T12:06:39.384Z,11.68
2022-08-12T12:09:09.313Z,13.13
2022-08-12T12:11:48.965Z,12.84
2022-08-12T12:14:17.802Z,13.82
2022-08-12T12:16:50.935Z,13.07
2022-08-12T12:19:21.426Z,12.16
2022-08-12T12:21:52.299Z,12.45
2022-08-12T12:24:22.447Z,11.96
2022-08-12T12:26:59.749Z,12.60
2022-08-12T12:30:18.745Z,11.84
2022-08-12T12:32:53.091Z,12.38
2022-08-12T12:36:18.298Z,11.56
2022-08-12T12:38:15.869Z,11.40
2022-08-12T12:40:50.378Z,11.12
2022-08-12T12:43:42.416Z,11.42
2022-08-12T12:46:12.555Z,11.89
2022-08-12T12:48:44.796Z,11.67
2022-08-12T12:51:49.251Z,10.99
2022-08-12T12:54:10.375Z,11.41
2022-08-12T12:56:42.543Z,10.31
2022-08-12T12:59:55.474Z,11.11
2022-08-12T13:02:06.168Z,10.82
2022-08-12T13:04:37.723Z,11.07
2022-08-12T13:07:06.821Z,10.12
2022-08-12T13:09:36.360Z,10.17
2022-08-12T13:12:10.403Z,9.88
2022-08-12T13:14:39.585Z,10.28
2022-08-12T13:17:14.641Z,11.01
2022-08-12T13:19:50.006Z,10.19
2022-08-12T13:22:19.301Z,10.92
2022-08-12T13:24:56.535Z,10.09
2022-08-12T13:27:36.360Z,10.31
2022-08-12T13:30:17.634Z,10.03
2022-08-12T13:32:57.467Z,10.33
2022-08-12T13:35:33.317Z,9.93
2022-08-12T13:38:34.189Z,10.32
2022-08-12T13:41:11.068Z,10.39
2022-08-12T13:43:42.045Z,9.55
2022-08-12T13:46:14.840Z,9.96
2022-08-12T13:48:45.222Z,9.32
2022-08-12T13:51:14.733Z,9.55
2022-08-12T13:53:58.275Z,9.37
2022-08-12T13:56:34.626Z,9.32
2022-08-12T13:59:07.876Z,10.06
2022-08-12T14:01:40.237Z,9.31
2022-08-12T14:04:12.510Z,9.40
2022-08-12T14:06:41.555Z,9.62
2022-08-12T14:09:17.611Z,9.44
2022-08-12T14:11:51.222Z,9.26
2022-08-12T14:14:31.596Z,9.16
2022-08-12T14:17:10.397Z,9.81
2022-08-12T14:20:00.495Z,9.08
2022-08-12T14:22:30.309Z,8.96
2022-08-12T14:25:01.188Z,8.72
2022-08-12T14:28:04.639Z,8.68
2022-08-12T14:30:28.863Z,9.29
2022-08-12T14:33:03.284Z,9.94
2022-08-12T14:35:41.097Z,9.58
2022-08-12T14:38:37.634Z,9.47
2022-08-12T14:41:11.552Z,9.47
2022-08-12T14:43:58.756Z,9.36
2022-08-12T14:46:28.358Z,9.45
2022-08-12T14:48:56.749Z,9.76
2022-08-12T14:52:44.181Z,9.40
2022-08-12T14:57:20.411Z,9.38
2022-08-12T15:00:10.412Z,8.98
2022-08-12T15:02:39.323Z,9.43
2022-08-12T15:05:08.320Z,9.27
2022-08-12T15:07:49.973Z,9.05
2022-08-12T15:10:25.413Z,9.23
2022-08-12T15:13:07.703Z,9.72
2022-08-12T15:15:46.064Z,8.67
2022-08-12T15:18:22.841Z,9.25
2022-08-12T15:21:00.174Z,9.22
2022-08-12T15:23:55.007Z,9.13
2022-08-12T15:26:27.412Z,8.95
2022-08-12T15:28:57.686Z,8.76
2022-08-12T15:32:01.040Z,9.23
2022-08-12T15:34:16.029Z,9.57
2022-08-12T15:36:55.188Z,9.20
2022-08-12T15:39:23.963Z,9.38
2022-08-12T15:41:55.763Z,8.98
2022-08-12T15:44:42.011Z,9.32
2022-08-12T15:47:11.686Z,9.44
2022-08-12T15:49:54.759Z,9.29
2022-08-12T15:52:29.525Z,9.40
2022-08-12T15:55:05.878Z,9.36
2022-08-12T15:57:54.161Z,9.14
2022-08-12T16:00:43.140Z,9.45
2022-08-12T16:03:14.356Z,9.46
2022-08-12T16:06:11.280Z,9.52
2022-08-12T16:08:39.510Z,9.46
2022-08-12T16:11:18.797Z,10.14
2022-08-12T16:13:47.789Z,9.76
2022-08-12T16:16:23.481Z,9.37
2022-08-12T16:19:02.045Z,9.91
2022-08-12T16:21:52.456Z,9.69
2022-08-12T16:24:25.645Z,9.95
2022-08-12T16:26:54.062Z,9.84
2022-08-12T16:29:52.041Z,9.93
2022-08-12T16:32:40.903Z,10.41
2022-08-12T16:35:16.758Z,10.49
2022-08-12T16:38:24.414Z,10.63
2022-08-12T16:40:34.945Z,10.51
2022-08-12T16:43:13.095Z,10.17
2022-08-12T16:46:31.532Z,10.30
2022-08-12T16:48:56.092Z,10.69
2022-08-12T16:51:26.591Z,10.79
2022-08-12T16:53:54.886Z,11.01
2022-08-12T16:56:26.178Z,11.03
2022-08-12T16:58:59.541Z,10.66
2022-08-12T17:01:31.989Z,11.11
2022-08-12T17:04:09.093Z,11.23
2022-08-12T17:06:43.169Z,11.26
2022-08-12T17:09:45.540Z,11.68
2022-08-12T17:12:13.918Z,12.12
2022-08-12T17:14:47.252Z,11.51
2022-08-12T17:17:38.819Z,11.71
2022-08-12T17:20:35.543Z,11.68
2022-08-12T17:23:03.235Z,11.60
2022-08-12T17:25:38.083Z,11.88
2022-08-12T17:28:07.924Z,12.55
2022-08-12T17:30:36.706Z,12.39
2022-08-12T17:33:06.748Z,12.63
2022-08-12T17:35:36.697Z,12.81
2022-08-12T17:38:34.551Z,12.68
2022-08-12T17:41:08.140Z,13.18
2022-08-12T17:43:58.338Z,13.43
2022-08-12T17:46:33.096Z,13.45
2022-08-12T17:49:06.628Z,13.48
2022-08-12T17:52:02.704Z,13.97
2022-08-12T17:54:41.820Z,13.99
2022-08-12T17:57:16.327Z,14.45
2022-08-12T17:59:48.005Z,14.62
2022-08-12T18:02:22.524Z,14.87
2022-08-12T18:05:09.450Z,14.59
2022-08-12T18:07:39.555Z,14.55
2022-08-12T18:10:10.784Z,14.83
2022-08-12T18:12:48.864Z,15.66
2022-08-12T18:15:26.231Z,14.84
2022-08-12T18:18:16.862Z,14.80
2022-08-12T18:20:47.914Z,14.66
2022-08-12T18:23:24.329Z,15.35
2022-08-12T18:26:17.534Z,15.45
2022-08-12T18:28:48.231Z,16.00
2022-08-12T18:31:44.631Z,16.03
2022-08-12T18:34:27.041Z,16.47
2022-08-12T18:36:55.848Z,17.26
2022-08-12T18:39:24.102Z,17.05
2022-08-12T18:41:53.574Z,17.82
2022-08-12T18:44:25.166Z,18.04
2022-08-12T18:46:55.786Z,19.07
2022-08-12T18:49:38.872Z,18.93
2022-08-12T18:52:11.873Z,17.60
2022-08-12T18:54:52.911Z,17.72
2022-08-12T18:58:05.996Z,17.72
2022-08-12T19:00:22.106Z,18.34
2022-08-12T19:02:53.328Z,18.47
2022-08-12T19:05:24.820Z,18.46
2022-08-12T19:08:14.161Z,18.56
2022-08-12T19:10:50.713Z,18.73
2022-08-12T19:13:42.844Z,19.04
2022-08-12T19:16:12.561Z,20.76
2022-08-12T19:18:45.042Z,19.22
2022-08-12T19:21:17.039Z,19.76
2022-08-12T19:24:09.085Z,20.18
2022-08-12T19:26:38.523Z,22.19
2022-08-12T19:29:08.444Z,20.09
2022-08-12T19:31:57.772Z,22.63
2022-08-12T19:38:06.428Z,21.62
2022-08-12T19:40:34.494Z,21.08
2022-08-12T19:43:19.909Z,21.89
2022-08-12T19:45:56.601Z,20.90
2022-08-12T19:48:30.765Z,20.83
2022-08-12T19:51:09.113Z,20.78
2022-08-12T19:53:57.948Z,22.08
2022-08-12T19:56:30.425Z,21.82
2022-08-12T19:59:20.729Z,23.19
2022-08-12T20:02:02.562Z,21.65
2022-08-12T20:04:37.437Z,23.80
2022-08-12T20:07:23.946Z,22.47
2022-08-12T20:09:53.872Z,23.72
2022-08-12T20:12:30.868Z,22.74
2022-08-12T20:15:05.212Z,25.44
2022-08-12T20:17:36.466Z,24.25
2022-08-12T20:20:27.591Z,25.10
2022-08-12T20:22:57.559Z,23.42
2022-08-12T20:25:51.905Z,24.07
2022-08-12T20:28:15.013Z,23.32
2022-08-12T20:30:53.572Z,25.01
2022-08-12T20:33:50.200Z,26.38
2022-08-12T20:36:41.645Z,25.49
2022-08-12T20:39:34.130Z,24.24
2022-08-12T20:42:07.155Z,25.50
2022-08-12T20:45:14.253Z,24.51
2022-08-12T20:48:10.262Z,24.66
2022-08-12T20:50:53.530Z,24.26
2022-08-12T20:53:57.557Z,25.24
2022-08-12T20:56:36.857Z,24.26
2022-08-12T20:59:19.853Z,24.63
2022-08-12T21:01:53.859Z,27.20
2022-08-12T21:04:43.714Z,26.94
2022-08-12T21:07:13.811Z,25.65
2022-08-12T21:09:47.904Z,25.53
2022-08-12T21:12:31.133Z,26.25
2022-08-12T21:15:22.839Z,25.46
2022-08-12T21:18:11.528Z,26.79
2022-08-12T21:20:54.401Z,26.72
2022-08-12T21:23:23.387Z,26.46
2022-08-12T21:25:56.399Z,26.29
2022-08-12T21:28:31.233Z,26.24
2022-08-12T21:32:35.210Z,27.23
2022-08-12T21:34:08.836Z,26.61
2022-08-12T21:36:43.098Z,26.11
2022-08-12T21:39:21.625Z,25.66
2022-08-12T21:41:53.868Z,25.83
2022-08-12T21:45:47.300Z,25.48
2022-08-12T21:47:20.034Z,25.37
2022-08-12T21:50:06.904Z,26.41
2022-08-12T21:52:42.072Z,25.66
2022-08-12T21:55:17.992Z,26.69
2022-08-12T21:57:54.700Z,26.44
2022-08-12T22:00:35.104Z,28.04
2022-08-12T22:04:03.465Z,26.04
2022-08-12T22:06:26.330Z,28.50
2022-08-12T22:09:02.620Z,28.90
2022-08-12T22:11:41.760Z,30.23
2022-08-12T22:14:22.016Z,29.62
2022-08-12T22:16:54.284Z,28.73
2022-08-12T22:19:23.473Z,28.87
2022-08-12T22:21:55.865Z,30.08
2022-08-12T22:24:27.746Z,30.05
2022-08-12T22:27:31.289Z,29.42
2022-08-12T22:30:19.978Z,29.12
2022-08-12T22:32:49.848Z,30.08
2022-08-12T22:35:29.742Z,32.20
2022-08-12T22:38:43.195Z,29.38
2022-08-12T22:41:33.912Z,28.81
2022-08-12T22:44:22.204Z,29.29
2022-08-12T22:47:12.476Z,30.05
2022-08-12T22:49:53.648Z,30.26
2022-08-12T22:52:28.328Z,29.76
2022-08-12T22:55:04.175Z,30.63
2022-08-12T22:57:48.960Z,30.40
2022-08-12T23:00:27.236Z,31.40
2022-08-12T23:03:02.870Z,30.29
2022-08-12T23:05:57.781Z,29.31
2022-08-12T23:08:32.002Z,30.76
2022-08-12T23:11:06.094Z,31.18
2022-08-12T23:13:45.718Z,30.47
2022-08-12T23:16:27.960Z,31.69
2022-08-12T23:19:18.058Z,30.76
2022-08-12T23:22:03.838Z,32.39
2022-08-12T23:24:56.564Z,32.26
2022-08-12T23:27:50.681Z,31.80
2022-08-12T23:30:31.331Z,32.06
2022-08-12T23:33:19.911Z,32.94
2022-08-12T23:36:31.838Z,31.88
2022-08-12T23:40:06.737Z,31.16
2022-08-12T23:42:17.712Z,34.36
2022-08-12T23:44:52.689Z,31.71
2022-08-12T23:47:24.109Z,31.94
2022-08-12T23:49:57.763Z,31.88
2022-08-12T23:52:34.466Z,32.46
2022-08-12T23:55:23.175Z,32.19
2022-08-12T23:58:21.614Z,31.82
